sensor_id;sensor_type;location;lat;lon;timestamp;pressure;altitude;pressure_sealevel;temperature;humidity
28588;BME280;15787;49.662;10.162;2023-07-20T00:01:33;98803.25;;;18.96;100.00
28588;BME280;15787;49.662;10.162;2023-07-20T00:04:06;98798.22;;;18.85;100.00
28588;BME280;15787;49.662;10.162;2023-07-20T00:06:39;98797.72;;;18.87;100.00
28588;BME280;15787;49.662;10.162;2023-07-20T00:09:14;98786.00;;;18.94;100.00
28588;BME280;15787;49.662;10.162;2023-07-20T00:11:49;98797.38;;;19.00;100.00
28588;BME280;15787;49.662;10.162;2023-07-20T00:14:22;98792.34;;;18.89;100.00
28588;BME280;15787;49.662;10.162;2023-07-20T00:16:55;98789.31;;;18.92;100.00
28588;BME280;15787;49.662;10.162;2023-07-20T00:19:28;98790.91;;;18.79;100.00
28588;BME280;15787;49.662;10.162;2023-07-20T00:22:04;98784.69;;;18.75;100.00
28588;BME280;15787;49.662;10.162;2023-07-20T00:24:38;98793.47;;;18.77;100.00
28588;BME280;15787;49.662;10.162;2023-07-20T00:27:11;98800.31;;;18.70;100.00
28588;BME280;15787;49.662;10.162;2023-07-20T00:29:44;98795.22;;;18.74;100.00
28588;BME280;15787;49.662;10.162;2023-07-20T00:32:17;98794.34;;;18.48;100.00
28588;BME280;15787;49.662;10.162;2023-07-20T00:34:50;98796.16;;;18.51;100.00
28588;BME280;15787;49.662;10.162;2023-07-20T00:37:23;98799.66;;;18.46;100.00
28588;BME280;15787;49.662;10.162;2023-07-20T00:39:58;98793.34;;;18.51;100.00
28588;BME280;15787;49.662;10.162;2023-07-20T00:42:31;98790.19;;;18.64;100.00
28588;BME280;15787;49.662;10.162;2023-07-20T00:45:05;98792.53;;;18.65;100.00
28588;BME280;15787;49.662;10.162;2023-07-20T00:47:39;98794.38;;;18.68;100.00
28588;BME280;15787;49.662;10.162;2023-07-20T00:50:12;98800.50;;;18.67;100.00
28588;BME280;15787;49.662;10.162;2023-07-20T00:52:45;98799.72;;;18.66;100.00
28588;BME280;15787;49.662;10.162;2023-07-20T00:55:19;98807.56;;;18.42;100.00
28588;BME280;15787;49.662;10.162;2023-07-20T00:57:53;98806.03;;;18.12;100.00
28588;BME280;15787;49.662;10.162;2023-07-20T01:00:26;98798.81;;;18.25;100.00
28588;BME280;15787;49.662;10.162;2023-07-20T01:02:59;98804.19;;;18.09;100.00
28588;BME280;15787;49.662;10.162;2023-07-20T01:05:38;98812.28;;;18.16;100.00
28588;BME280;15787;49.662;10.162;2023-07-20T01:08:17;98811.59;;;18.06;100.00
28588;BME280;15787;49.662;10.162;2023-07-20T01:11:04;98809.94;;;18.14;100.00
28588;BME280;15787;49.662;10.162;2023-07-20T01:13:39;98809.16;;;18.14;100.00
28588;BME280;15787;49.662;10.162;2023-07-20T01:16:12;98804.28;;;18.14;100.00
28588;BME280;15787;49.662;10.162;2023-07-20T01:18:45;98811.81;;;18.17;100.00
28588;BME280;15787;49.662;10.162;2023-07-20T01:21:24;98810.63;;;18.24;100.00
28588;BME280;15787;49.662;10.162;2023-07-20T01:24:12;98815.38;;;18.18;100.00
28588;BME280;15787;49.662;10.162;2023-07-20T01:27:12;98813.78;;;18.46;100.00
28588;BME280;15787;49.662;10.162;2023-07-20T01:30:16;98807.97;;;18.35;100.00
28588;BME280;15787;49.662;10.162;2023-07-20T01:32:55;98811.00;;;18.31;100.00
28588;BME280;15787;49.662;10.162;2023-07-20T01:35:30;98823.28;;;18.14;100.00
28588;BME280;15787;49.662;10.162;2023-07-20T01:38:03;98823.19;;;18.08;100.00
28588;BME280;15787;49.662;10.162;2023-07-20T01:40:38;98820.94;;;18.27;100.00
28588;BME280;15787;49.662;10.162;2023-07-20T01:43:12;98824.47;;;18.22;100.00
28588;BME280;15787;49.662;10.162;2023-07-20T01:45:45;98831.28;;;18.30;100.00
28588;BME280;15787;49.662;10.162;2023-07-20T01:48:20;98820.44;;;18.28;100.00
28588;BME280;15787;49.662;10.162;2023-07-20T01:50:53;98831.38;;;18.21;100.00
28588;BME280;15787;49.662;10.162;2023-07-20T01:53:26;98831.66;;;18.08;100.00
28588;BME280;15787;49.662;10.162;2023-07-20T01:55:59;98840.03;;;18.03;100.00
28588;BME280;15787;49.662;10.162;2023-07-20T01:58:33;98842.19;;;18.22;100.00
28588;BME280;15787;49.662;10.162;2023-07-20T02:01:06;98847.75;;;18.17;100.00
28588;BME280;15787;49.662;10.162;2023-07-20T02:03:41;98840.44;;;18.25;100.00
28588;BME280;15787;49.662;10.162;2023-07-20T02:06:14;98841.41;;;18.22;100.00
28588;BME280;15787;49.662;10.162;2023-07-20T02:08:47;98849.41;;;18.09;100.00
28588;BME280;15787;49.662;10.162;2023-07-20T02:11:19;98843.56;;;18.12;100.00
28588;BME280;15787;49.662;10.162;2023-07-20T02:13:53;98853.13;;;18.15;100.00
28588;BME280;15787;49.662;10.162;2023-07-20T02:16:27;98845.09;;;18.28;100.00
28588;BME280;15787;49.662;10.162;2023-07-20T02:19:03;98857.38;;;17.96;100.00
28588;BME280;15787;49.662;10.162;2023-07-20T02:21:38;98851.44;;;17.79;100.00
28588;BME280;15787;49.662;10.162;2023-07-20T02:24:12;98848.91;;;17.96;100.00
28588;BME280;15787;49.662;10.162;2023-07-20T02:26:45;98850.56;;;18.17;100.00
28588;BME280;15787;49.662;10.162;2023-07-20T02:29:18;98857.59;;;18.21;100.00
28588;BME280;15787;49.662;10.162;2023-07-20T02:31:51;98859.06;;;18.17;100.00
28588;BME280;15787;49.662;10.162;2023-07-20T02:34:26;98862.44;;;18.21;100.00
28588;BME280;15787;49.662;10.162;2023-07-20T02:36:59;98859.06;;;18.17;100.00
28588;BME280;15787;49.662;10.162;2023-07-20T02:39:32;98861.19;;;18.07;100.00
28588;BME280;15787;49.662;10.162;2023-07-20T02:42:05;98866.56;;;18.35;100.00
28588;BME280;15787;49.662;10.162;2023-07-20T02:44:39;98858.84;;;18.35;100.00
28588;BME280;15787;49.662;10.162;2023-07-20T02:47:12;98866.34;;;18.23;100.00
28588;BME280;15787;49.662;10.162;2023-07-20T02:49:46;98856.13;;;18.41;100.00
28588;BME280;15787;49.662;10.162;2023-07-20T02:52:19;98859.44;;;18.10;100.00
28588;BME280;15787;49.662;10.162;2023-07-20T02:54:53;98862.75;;;18.23;100.00
28588;BME280;15787;49.662;10.162;2023-07-20T02:57:26;98870.81;;;18.15;100.00
28588;BME280;15787;49.662;10.162;2023-07-20T02:59:59;98866.06;;;18.21;100.00
28588;BME280;15787;49.662;10.162;2023-07-20T03:02:32;98871.13;;;18.32;100.00
28588;BME280;15787;49.662;10.162;2023-07-20T03:05:08;98867.03;;;18.04;100.00
28588;BME280;15787;49.662;10.162;2023-07-20T03:07:41;98873.94;;;17.88;100.00
28588;BME280;15787;49.662;10.162;2023-07-20T03:10:15;98872.53;;;17.69;100.00
28588;BME280;15787;49.662;10.162;2023-07-20T03:12:48;98874.28;;;17.66;100.00
28588;BME280;15787;49.662;10.162;2023-07-20T03:15:21;98871.03;;;17.35;100.00
28588;BME280;15787;49.662;10.162;2023-07-20T03:17:53;98873.84;;;17.12;100.00
28588;BME280;15787;49.662;10.162;2023-07-20T03:20:28;98868.88;;;17.30;100.00
28588;BME280;15787;49.662;10.162;2023-07-20T03:23:01;98867.78;;;17.04;100.00
28588;BME280;15787;49.662;10.162;2023-07-20T03:25:34;98871.41;;;17.28;100.00
28588;BME280;15787;49.662;10.162;2023-07-20T03:28:09;98876.28;;;17.28;100.00
28588;BME280;15787;49.662;10.162;2023-07-20T03:30:42;98882.22;;;17.30;100.00
28588;BME280;15787;49.662;10.162;2023-07-20T03:33:15;98886.94;;;17.00;100.00
28588;BME280;15787;49.662;10.162;2023-07-20T03:35:49;98887.84;;;17.06;100.00
28588;BME280;15787;49.662;10.162;2023-07-20T03:38:22;98884.41;;;17.02;100.00
28588;BME280;15787;49.662;10.162;2023-07-20T03:40:57;98893.03;;;16.98;100.00
28588;BME280;15787;49.662;10.162;2023-07-20T03:43:30;98895.84;;;17.08;100.00
28588;BME280;15787;49.662;10.162;2023-07-20T03:46:03;98895.06;;;17.07;100.00
28588;BME280;15787;49.662;10.162;2023-07-20T03:48:39;98905.41;;;17.01;100.00
28588;BME280;15787;49.662;10.162;2023-07-20T03:51:13;98891.94;;;17.05;100.00
28588;BME280;15787;49.662;10.162;2023-07-20T03:53:46;98899.75;;;17.10;100.00
28588;BME280;15787;49.662;10.162;2023-07-20T03:56:19;98905.13;;;16.99;100.00
28588;BME280;15787;49.662;10.162;2023-07-20T03:58:53;98901.28;;;16.87;100.00
28588;BME280;15787;49.662;10.162;2023-07-20T04:01:26;98909.88;;;16.84;100.00
28588;BME280;15787;49.662;10.162;2023-07-20T04:03:59;98910.09;;;17.04;100.00
28588;BME280;15787;49.662;10.162;2023-07-20T04:06:34;98915.50;;;16.93;100.00
28588;BME280;15787;49.662;10.162;2023-07-20T04:09:07;98912.06;;;16.89;100.00
28588;BME280;15787;49.662;10.162;2023-07-20T04:11:40;98925.59;;;16.76;100.00
28588;BME280;15787;49.662;10.162;2023-07-20T04:14:13;98925.28;;;16.83;100.00
28588;BME280;15787;49.662;10.162;2023-07-20T04:16:46;98921.81;;;16.79;100.00
28588;BME280;15787;49.662;10.162;2023-07-20T04:19:19;98928.03;;;16.92;100.00
28588;BME280;15787;49.662;10.162;2023-07-20T04:21:53;98932.28;;;16.87;100.00
28588;BME280;15787;49.662;10.162;2023-07-20T04:24:26;98937.59;;;16.94;100.00
28588;BME280;15787;49.662;10.162;2023-07-20T04:27:00;98942.28;;;16.88;100.00
28588;BME280;15787;49.662;10.162;2023-07-20T04:29:33;98936.50;;;16.92;100.00
28588;BME280;15787;49.662;10.162;2023-07-20T04:32:07;98935.78;;;17.06;100.00
28588;BME280;15787;49.662;10.162;2023-07-20T04:34:42;98942.44;;;16.94;100.00
28588;BME280;15787;49.662;10.162;2023-07-20T04:37:17;98943.72;;;16.84;100.00
28588;BME280;15787;49.662;10.162;2023-07-20T04:39:51;98952.06;;;16.78;100.00
28588;BME280;15787;49.662;10.162;2023-07-20T04:42:24;98938.94;;;16.75;100.00
28588;BME280;15787;49.662;10.162;2023-07-20T04:44:56;98945.00;;;16.83;100.00
28588;BME280;15787;49.662;10.162;2023-07-20T04:47:30;98947.00;;;16.91;100.00
28588;BME280;15787;49.662;10.162;2023-07-20T04:50:03;98948.63;;;16.74;100.00
28588;BME280;15787;49.662;10.162;2023-07-20T04:52:38;98954.72;;;16.82;100.00
28588;BME280;15787;49.662;10.162;2023-07-20T04:55:18;98957.25;;;16.71;100.00
28588;BME280;15787;49.662;10.162;2023-07-20T04:57:51;98950.44;;;16.95;100.00
28588;BME280;15787;49.662;10.162;2023-07-20T05:00:26;98952.91;;;17.02;99.54
28588;BME280;15787;49.662;10.162;2023-07-20T05:02:59;98956.97;;;17.01;99.11
28588;BME280;15787;49.662;10.162;2023-07-20T05:05:32;98952.91;;;17.02;98.90
28588;BME280;15787;49.662;10.162;2023-07-20T05:08:07;98951.19;;;16.96;98.71
28588;BME280;15787;49.662;10.162;2023-07-20T05:10:40;98952.16;;;16.93;98.87
28588;BME280;15787;49.662;10.162;2023-07-20T05:13:13;98955.28;;;16.95;98.19
28588;BME280;15787;49.662;10.162;2023-07-20T05:15:46;98957.97;;;17.22;98.50
28588;BME280;15787;49.662;10.162;2023-07-20T05:18:22;98958.69;;;17.08;97.99
28588;BME280;15787;49.662;10.162;2023-07-20T05:20:55;98956.06;;;17.28;96.68
28588;BME280;15787;49.662;10.162;2023-07-20T05:23:31;98957.59;;;17.38;95.65
28588;BME280;15787;49.662;10.162;2023-07-20T05:26:04;98959.78;;;17.34;95.89
28588;BME280;15787;49.662;10.162;2023-07-20T05:28:37;98962.06;;;17.21;97.00
28588;BME280;15787;49.662;10.162;2023-07-20T05:31:10;98956.66;;;17.32;96.98
28588;BME280;15787;49.662;10.162;2023-07-20T05:33:43;98947.19;;;17.44;96.90
28588;BME280;15787;49.662;10.162;2023-07-20T05:36:16;98947.50;;;17.46;95.68
28588;BME280;15787;49.662;10.162;2023-07-20T05:38:50;98954.06;;;17.20;95.18
28588;BME280;15787;49.662;10.162;2023-07-20T05:41:23;98954.88;;;17.44;95.39
28588;BME280;15787;49.662;10.162;2023-07-20T05:43:56;98953.44;;;17.48;94.53
28588;BME280;15787;49.662;10.162;2023-07-20T05:46:29;98962.06;;;17.21;95.56
28588;BME280;15787;49.662;10.162;2023-07-20T05:49:21;98956.66;;;17.32;97.02
28588;BME280;15787;49.662;10.162;2023-07-20T05:51:54;98950.00;;;17.44;95.74
28588;BME280;15787;49.662;10.162;2023-07-20T05:54:30;98947.31;;;17.50;96.32
28588;BME280;15787;49.662;10.162;2023-07-20T05:57:03;98951.03;;;17.32;96.58
28588;BME280;15787;49.662;10.162;2023-07-20T05:59:36;98948.25;;;17.47;96.17
28588;BME280;15787;49.662;10.162;2023-07-20T06:02:10;98951.78;;;17.65;96.38
28588;BME280;15787;49.662;10.162;2023-07-20T06:04:44;98944.28;;;17.62;95.53
28588;BME280;15787;49.662;10.162;2023-07-20T06:07:17;98954.19;;;17.82;93.85
28588;BME280;15787;49.662;10.162;2023-07-20T06:09:51;98951.69;;;17.75;92.47
28588;BME280;15787;49.662;10.162;2023-07-20T06:12:25;98958.50;;;17.92;91.32
28588;BME280;15787;49.662;10.162;2023-07-20T06:14:58;98951.91;;;18.09;90.18
28588;BME280;15787;49.662;10.162;2023-07-20T06:17:31;98955.53;;;18.24;88.50
28588;BME280;15787;49.662;10.162;2023-07-20T06:20:06;98951.19;;;18.38;86.45
28588;BME280;15787;49.662;10.162;2023-07-20T06:22:40;98950.59;;;18.49;85.48
28588;BME280;15787;49.662;10.162;2023-07-20T06:25:14;98956.44;;;18.45;84.57
28588;BME280;15787;49.662;10.162;2023-07-20T06:27:49;98955.97;;;18.61;83.65
28588;BME280;15787;49.662;10.162;2023-07-20T06:30:22;98951.00;;;18.71;82.47
28588;BME280;15787;49.662;10.162;2023-07-20T06:32:56;98959.28;;;18.74;83.25
28588;BME280;15787;49.662;10.162;2023-07-20T06:35:29;98951.94;;;18.97;82.10
28588;BME280;15787;49.662;10.162;2023-07-20T06:38:02;98946.50;;;18.93;81.52
28588;BME280;15787;49.662;10.162;2023-07-20T06:40:39;98956.72;;;19.06;81.10
28588;BME280;15787;49.662;10.162;2023-07-20T06:43:12;98964.53;;;18.96;79.92
28588;BME280;15787;49.662;10.162;2023-07-20T06:45:51;98957.38;;;19.15;80.33
28588;BME280;15787;49.662;10.162;2023-07-20T06:48:25;98958.00;;;19.25;80.00
28588;BME280;15787;49.662;10.162;2023-07-20T06:50:58;98955.25;;;19.45;80.35
28588;BME280;15787;49.662;10.162;2023-07-20T06:53:31;98964.59;;;19.51;78.50
28588;BME280;15787;49.662;10.162;2023-07-20T06:56:05;98960.25;;;19.70;78.59
28588;BME280;15787;49.662;10.162;2023-07-20T06:58:38;98958.94;;;19.71;78.00
28588;BME280;15787;49.662;10.162;2023-07-20T07:01:12;98961.59;;;19.75;78.38
28588;BME280;15787;49.662;10.162;2023-07-20T07:03:45;98958.31;;;20.02;78.28
28588;BME280;15787;49.662;10.162;2023-07-20T07:06:20;98962.06;;;20.34;77.48
28588;BME280;15787;49.662;10.162;2023-07-20T07:08:55;98961.44;;;20.50;77.11
28588;BME280;15787;49.662;10.162;2023-07-20T07:11:29;98964.50;;;20.46;74.82
28588;BME280;15787;49.662;10.162;2023-07-20T07:14:02;98966.28;;;20.69;74.47
28588;BME280;15787;49.662;10.162;2023-07-20T07:16:35;98966.09;;;20.78;74.95
28588;BME280;15787;49.662;10.162;2023-07-20T07:19:10;98963.66;;;20.66;73.51
28588;BME280;15787;49.662;10.162;2023-07-20T07:21:43;98966.78;;;20.68;73.81
28588;BME280;15787;49.662;10.162;2023-07-20T07:24:16;98962.44;;;21.04;74.58
28588;BME280;15787;49.662;10.162;2023-07-20T07:26:52;98964.84;;;21.11;72.65
28588;BME280;15787;49.662;10.162;2023-07-20T07:29:25;98965.75;;;21.28;72.72
28588;BME280;15787;49.662;10.162;2023-07-20T07:31:59;98958.41;;;21.53;72.55
28588;BME280;15787;49.662;10.162;2023-07-20T07:34:33;98956.56;;;21.50;70.99
28588;BME280;15787;49.662;10.162;2023-07-20T07:37:06;98960.06;;;21.28;71.12
28588;BME280;15787;49.662;10.162;2023-07-20T07:39:40;98962.81;;;21.17;71.75
28588;BME280;15787;49.662;10.162;2023-07-20T07:42:14;98963.22;;;21.35;71.51
28588;BME280;15787;49.662;10.162;2023-07-20T07:44:47;98957.19;;;21.65;70.62
28588;BME280;15787;49.662;10.162;2023-07-20T07:47:20;98962.34;;;21.66;68.40
28588;BME280;15787;49.662;10.162;2023-07-20T07:49:53;98957.34;;;21.98;68.74
28588;BME280;15787;49.662;10.162;2023-07-20T07:52:26;98959.22;;;22.18;68.53
28588;BME280;15787;49.662;10.162;2023-07-20T07:54:59;98962.19;;;21.38;66.14
28588;BME280;15787;49.662;10.162;2023-07-20T07:57:33;98958.16;;;21.56;67.69
28588;BME280;15787;49.662;10.162;2023-07-20T08:00:07;98963.44;;;21.32;67.23
28588;BME280;15787;49.662;10.162;2023-07-20T08:02:44;98967.72;;;21.59;68.55
28588;BME280;15787;49.662;10.162;2023-07-20T08:05:18;98967.06;;;21.32;67.21
28588;BME280;15787;49.662;10.162;2023-07-20T08:07:51;98959.41;;;21.50;64.68
28588;BME280;15787;49.662;10.162;2023-07-20T08:10:24;98963.94;;;22.32;65.75
28588;BME280;15787;49.662;10.162;2023-07-20T08:12:58;98973.66;;;22.03;64.51
28588;BME280;15787;49.662;10.162;2023-07-20T08:15:31;98965.25;;;22.36;63.34
28588;BME280;15787;49.662;10.162;2023-07-20T08:18:04;98961.72;;;22.75;62.65
28588;BME280;15787;49.662;10.162;2023-07-20T08:20:37;98952.41;;;22.80;61.88
28588;BME280;15787;49.662;10.162;2023-07-20T08:23:10;98968.88;;;22.48;61.38
28588;BME280;15787;49.662;10.162;2023-07-20T08:25:43;98971.31;;;21.96;62.72
28588;BME280;15787;49.662;10.162;2023-07-20T08:28:18;98951.19;;;22.11;63.25
28588;BME280;15787;49.662;10.162;2023-07-20T08:30:50;98950.25;;;22.47;63.33
28588;BME280;15787;49.662;10.162;2023-07-20T08:33:23;98951.34;;;22.72;61.06
28588;BME280;15787;49.662;10.162;2023-07-20T08:35:57;98953.63;;;23.34;60.64
28588;BME280;15787;49.662;10.162;2023-07-20T08:38:29;98947.72;;;22.99;59.41
28588;BME280;15787;49.662;10.162;2023-07-20T08:41:02;98953.69;;;22.84;59.69
28588;BME280;15787;49.662;10.162;2023-07-20T08:43:37;98951.63;;;22.90;57.98
28588;BME280;15787;49.662;10.162;2023-07-20T08:46:14;98948.00;;;22.84;58.97
28588;BME280;15787;49.662;10.162;2023-07-20T08:48:48;98956.25;;;23.43;57.34
28588;BME280;15787;49.662;10.162;2023-07-20T08:51:22;98956.53;;;23.17;57.05
28588;BME280;15787;49.662;10.162;2023-07-20T08:53:55;98945.09;;;23.51;57.06
28588;BME280;15787;49.662;10.162;2023-07-20T08:56:31;98946.44;;;23.39;56.81
28588;BME280;15787;49.662;10.162;2023-07-20T08:59:06;98941.00;;;23.02;57.60
28588;BME280;15787;49.662;10.162;2023-07-20T09:01:40;98938.91;;;23.24;57.29
28588;BME280;15787;49.662;10.162;2023-07-20T09:04:13;98941.91;;;23.76;56.10
28588;BME280;15787;49.662;10.162;2023-07-20T09:06:48;98943.28;;;23.48;55.79
28588;BME280;15787;49.662;10.162;2023-07-20T09:09:21;98948.56;;;23.96;55.53
28588;BME280;15787;49.662;10.162;2023-07-20T09:11:54;98939.53;;;23.92;52.64
28588;BME280;15787;49.662;10.162;2023-07-20T09:14:30;98937.13;;;24.12;52.56
28588;BME280;15787;49.662;10.162;2023-07-20T09:17:04;98930.00;;;24.35;52.54
28588;BME280;15787;49.662;10.162;2023-07-20T09:19:37;98936.75;;;24.32;52.36
28588;BME280;15787;49.662;10.162;2023-07-20T09:22:10;98930.69;;;25.12;52.16
28588;BME280;15787;49.662;10.162;2023-07-20T09:24:43;98934.19;;;25.29;51.83
28588;BME280;15787;49.662;10.162;2023-07-20T09:27:16;98935.91;;;25.13;52.82
28588;BME280;15787;49.662;10.162;2023-07-20T09:29:51;98940.47;;;25.22;51.70
28588;BME280;15787;49.662;10.162;2023-07-20T09:32:24;98939.28;;;24.77;52.10
28588;BME280;15787;49.662;10.162;2023-07-20T09:34:57;98942.47;;;25.03;50.84
28588;BME280;15787;49.662;10.162;2023-07-20T09:37:53;98931.09;;;24.97;51.17
28588;BME280;15787;49.662;10.162;2023-07-20T09:40:29;98936.91;;;24.86;50.12
28588;BME280;15787;49.662;10.162;2023-07-20T09:43:07;98922.56;;;25.94;49.31
28588;BME280;15787;49.662;10.162;2023-07-20T09:45:45;98934.72;;;25.57;48.86
28588;BME280;15787;49.662;10.162;2023-07-20T09:48:24;98937.41;;;25.44;50.01
28588;BME280;15787;49.662;10.162;2023-07-20T09:51:01;98935.31;;;24.56;51.02
28588;BME280;15787;49.662;10.162;2023-07-20T09:53:34;98929.06;;;24.92;51.72
28588;BME280;15787;49.662;10.162;2023-07-20T09:56:08;98933.63;;;24.71;51.37
28588;BME280;15787;49.662;10.162;2023-07-20T09:58:43;98918.72;;;24.48;51.25
28588;BME280;15787;49.662;10.162;2023-07-20T10:01:20;98910.41;;;25.88;50.47
28588;BME280;15787;49.662;10.162;2023-07-20T10:03:57;98920.53;;;25.46;48.61
28588;BME280;15787;49.662;10.162;2023-07-20T10:06:34;98924.34;;;25.97;48.35
28588;BME280;15787;49.662;10.162;2023-07-20T10:09:10;98930.28;;;25.32;48.56
28588;BME280;15787;49.662;10.162;2023-07-20T10:11:49;98931.47;;;25.12;48.72
28588;BME280;15787;49.662;10.162;2023-07-20T10:14:49;98924.78;;;24.39;48.87
28588;BME280;15787;49.662;10.162;2023-07-20T10:17:26;98914.22;;;24.23;50.98
28588;BME280;15787;49.662;10.162;2023-07-20T10:20:00;98923.06;;;24.20;50.89
28588;BME280;15787;49.662;10.162;2023-07-20T10:22:38;98922.06;;;24.17;51.93
28588;BME280;15787;49.662;10.162;2023-07-20T10:25:13;98917.00;;;23.82;53.19
28588;BME280;15787;49.662;10.162;2023-07-20T10:27:47;98918.00;;;24.42;53.07
28588;BME280;15787;49.662;10.162;2023-07-20T10:30:21;98919.72;;;24.16;52.01
28588;BME280;15787;49.662;10.162;2023-07-20T10:32:56;98918.78;;;23.91;52.49
28588;BME280;15787;49.662;10.162;2023-07-20T10:35:29;98912.03;;;23.94;52.90
28588;BME280;15787;49.662;10.162;2023-07-20T10:38:04;98917.19;;;23.96;53.01
28588;BME280;15787;49.662;10.162;2023-07-20T10:40:38;98903.41;;;24.51;52.54
28588;BME280;15787;49.662;10.162;2023-07-20T10:43:12;98898.34;;;25.28;50.69
28588;BME280;15787;49.662;10.162;2023-07-20T10:45:53;98900.72;;;25.72;50.83
28588;BME280;15787;49.662;10.162;2023-07-20T10:48:29;98904.97;;;25.12;50.97
28588;BME280;15787;49.662;10.162;2023-07-20T10:51:19;98902.16;;;25.60;50.00
28588;BME280;15787;49.662;10.162;2023-07-20T10:53:53;98904.53;;;25.32;48.54
28588;BME280;15787;49.662;10.162;2023-07-20T10:56:28;98899.38;;;25.55;49.07
28588;BME280;15787;49.662;10.162;2023-07-20T10:59:17;98905.44;;;25.46;48.72
28588;BME280;15787;49.662;10.162;2023-07-20T11:01:55;98885.22;;;25.38;47.64
28588;BME280;15787;49.662;10.162;2023-07-20T11:04:39;98887.63;;;26.20;48.23
28588;BME280;15787;49.662;10.162;2023-07-20T11:07:15;98887.22;;;26.29;47.75
28588;BME280;15787;49.662;10.162;2023-07-20T11:09:48;98899.06;;;25.34;47.63
28588;BME280;15787;49.662;10.162;2023-07-20T11:12:25;98889.25;;;25.54;47.07
28588;BME280;15787;49.662;10.162;2023-07-20T11:14:58;98881.88;;;26.01;47.08
28588;BME280;15787;49.662;10.162;2023-07-20T11:17:32;98873.22;;;27.08;46.02
28588;BME280;15787;49.662;10.162;2023-07-20T11:20:11;98875.72;;;26.66;46.29
28588;BME280;15787;49.662;10.162;2023-07-20T11:22:49;98875.16;;;26.86;45.19
28588;BME280;15787;49.662;10.162;2023-07-20T11:25:25;98865.97;;;27.46;44.43
28588;BME280;15787;49.662;10.162;2023-07-20T11:27:59;98863.94;;;28.19;44.05
28588;BME280;15787;49.662;10.162;2023-07-20T11:30:32;98863.41;;;27.16;45.60
28588;BME280;15787;49.662;10.162;2023-07-20T11:33:08;98857.16;;;27.18;44.48
28588;BME280;15787;49.662;10.162;2023-07-20T11:35:44;98857.44;;;27.93;43.35
28588;BME280;15787;49.662;10.162;2023-07-20T11:38:18;98862.69;;;27.68;43.07
28588;BME280;15787;49.662;10.162;2023-07-20T11:40:51;98857.41;;;26.56;42.72
28588;BME280;15787;49.662;10.162;2023-07-20T11:43:24;98857.94;;;26.55;43.46
28588;BME280;15787;49.662;10.162;2023-07-20T11:45:57;98857.13;;;27.31;43.17
28588;BME280;15787;49.662;10.162;2023-07-20T11:48:30;98860.69;;;27.76;42.50
28588;BME280;15787;49.662;10.162;2023-07-20T11:51:04;98855.91;;;27.13;43.15
28588;BME280;15787;49.662;10.162;2023-07-20T11:53:38;98852.88;;;26.29;44.82
28588;BME280;15787;49.662;10.162;2023-07-20T11:56:11;98863.50;;;26.66;45.14
28588;BME280;15787;49.662;10.162;2023-07-20T11:58:45;98861.63;;;26.68;45.26
28588;BME280;15787;49.662;10.162;2023-07-20T12:01:17;98851.41;;;27.70;43.70
28588;BME280;15787;49.662;10.162;2023-07-20T12:03:52;98858.97;;;28.07;43.22
28588;BME280;15787;49.662;10.162;2023-07-20T12:06:27;98852.53;;;27.54;43.34
28588;BME280;15787;49.662;10.162;2023-07-20T12:09:01;98848.72;;;26.30;43.00
28588;BME280;15787;49.662;10.162;2023-07-20T12:11:36;98835.06;;;27.78;43.45
28588;BME280;15787;49.662;10.162;2023-07-20T12:14:09;98854.97;;;27.63;42.17
28588;BME280;15787;49.662;10.162;2023-07-20T12:16:52;98855.94;;;26.18;44.63
28588;BME280;15787;49.662;10.162;2023-07-20T12:19:26;98863.28;;;26.13;44.80
28588;BME280;15787;49.662;10.162;2023-07-20T12:22:01;98835.69;;;26.92;44.33
28588;BME280;15787;49.662;10.162;2023-07-20T12:24:34;98842.00;;;27.04;43.63
28588;BME280;15787;49.662;10.162;2023-07-20T12:27:08;98839.59;;;27.21;41.77
28588;BME280;15787;49.662;10.162;2023-07-20T12:29:41;98836.09;;;27.68;41.42
28588;BME280;15787;49.662;10.162;2023-07-20T12:32:14;98831.47;;;27.25;41.22
28588;BME280;15787;49.662;10.162;2023-07-20T12:34:48;98832.75;;;26.34;42.12
28588;BME280;15787;49.662;10.162;2023-07-20T12:37:22;98825.59;;;27.31;41.22
28588;BME280;15787;49.662;10.162;2023-07-20T12:39:56;98824.06;;;27.30;42.14
28588;BME280;15787;49.662;10.162;2023-07-20T12:42:33;98822.50;;;26.89;42.43
28588;BME280;15787;49.662;10.162;2023-07-20T12:45:09;98814.50;;;27.53;41.91
28588;BME280;15787;49.662;10.162;2023-07-20T12:47:43;98805.03;;;28.26;41.22
28588;BME280;15787;49.662;10.162;2023-07-20T12:50:17;98804.34;;;27.00;40.16
28588;BME280;15787;49.662;10.162;2023-07-20T12:52:54;98804.66;;;26.96;40.96
28588;BME280;15787;49.662;10.162;2023-07-20T12:55:29;98814.41;;;26.43;41.60
28588;BME280;15787;49.662;10.162;2023-07-20T12:58:04;98805.53;;;26.91;41.03
28588;BME280;15787;49.662;10.162;2023-07-20T13:00:42;98814.00;;;27.23;39.92
28588;BME280;15787;49.662;10.162;2023-07-20T13:03:16;98811.81;;;26.26;40.73
28588;BME280;15787;49.662;10.162;2023-07-20T13:05:53;98807.50;;;26.52;40.18
28588;BME280;15787;49.662;10.162;2023-07-20T13:08:31;98806.53;;;27.20;39.98
28588;BME280;15787;49.662;10.162;2023-07-20T13:11:04;98799.63;;;26.71;41.54
28588;BME280;15787;49.662;10.162;2023-07-20T13:13:37;98798.72;;;26.63;42.13
28588;BME280;15787;49.662;10.162;2023-07-20T13:16:10;98801.50;;;26.36;42.56
28588;BME280;15787;49.662;10.162;2023-07-20T13:18:43;98796.06;;;26.52;42.96
28588;BME280;15787;49.662;10.162;2023-07-20T13:21:16;98792.63;;;27.37;41.89
28588;BME280;15787;49.662;10.162;2023-07-20T13:23:56;98790.41;;;27.70;40.23